Other Surface Observations
Issued by NWS Missoula, MT

Home | Current Version | Previous Version | Text Only | Print | Product List | Glossary On
Versions: 1 2 3 4 5 6 7 8 9 10 11 12 13 14 15 16 17 18 19 20 21 22 23 24 25 26 27 28 29 30 31 32 33 34 35 36 37 38 39 40 41 42 43 44 45 46 47 48 49 50
000
SXUS55 KMSO 230004
OSOMSO
MONTANA AWOS SUMMARY
NATIONAL WEATHER SERVICE MISSOULA MT
603 PM MDT MON MAY 22 2017

Montana AWOS Reports

LAUREL      |K6S8 222355Z AUTO 00000KT 40SM 18/03 A3016 RMK AO1 T01830033
ROUNDUP     |KRPX 222355Z AUTO 33014G19KT 40SM 19/00 A3008 RMK AO1 T01940000
EKALAKA     |K97M 222355Z AUTO 31009G14KT 40SM 12/03 A3010 RMK AO1 T01170028
PLAINS      |KS34 222355Z AUTO 00000KT 40SM 28/06 A3012 RMK AO1 T02780061
SCOBEY      |K9S2 222355Z AUTO 01011G19KT 40SM 18/01 A3011 RMK AO1 T01780006
TWIN BRIDGES|K7S1 222355Z AUTO 35012G19KT 40SM 21/02 A3017 RMK AO1 T02110017




USA.gov is the U.S. government's official web portal to all federal, state and local government web resources and services.